Mayhew, Mississippi
Current Conditions -  °F | °C
As of 5:50 PM on Friday 24 Oct 2014 (Local Time) from KGTR Reporting Station
Clear Clear  
Wind Chill: 70°   Ceiling: Unl
Heat Index: 70°   Visibility: 10mi
Dew Point: 43°   Wind: 7mph
Humidity: 38%   Direction: 330°NNW
Pressure: 30.07"   Gusts: NA
Location:  33.49°N, 88.63°W
Report Text: KGTR 242250Z 33006KT 10SM SKC 21/06 A3007
Loading
Personal Weather Stations






























Interactive Weather Map
Tropical Storm Tracking
New forecast layout! Learn more

10-Day Weather Forecast

Advertisements
Track Severe Weather on mobile